Time;durP1;ratioP1;P1;durP2;ratioP2;P2;SDS_P1;SDS_P2;PMS_P1;PMS_P2;Temp;Humidity;BMP_temperature;BMP_pressure;BME280_temperature;BME280_humidity;BME280_pressure;Samples;Min_cycle;Max_cycle;Signal;HPM_P1;HPM_P2
2021/05/30 00:01:08;;;;;;;;;;;;;;;16.91;46.83;101876.81;5078002;28;20315;-71
2021/05/30 00:03:35;;;;;;;;;;;;;;;17.01;46.92;101878.44;5071088;28;19920;-72
2021/05/30 00:06:02;;;;;;;;;;;;;;;16.81;47.66;101885.47;5076199;28;19928;-68
2021/05/30 00:08:31;;;;;;;;;;;;;;;16.90;47.62;101875.16;5061743;28;20403;-72
2021/05/30 00:10:59;;;;;;;;;;;;;;;16.96;47.59;101884.16;5080237;28;19927;-74
2021/05/30 00:13:26;;;;;;;;;;;;;;;16.88;47.92;101885.00;5080816;28;19927;-70
2021/05/30 00:15:53;;;;;;;;;;;;;;;16.74;48.45;101883.19;5096243;28;20280;-69
2021/05/30 00:18:21;;;;;;;;;;;;;;;16.81;48.37;101882.69;5097764;28;19949;-72
2021/05/30 00:20:53;;;;;;;;;;;;;;;16.74;48.53;101885.97;5071733;28;19971;-69
2021/05/30 00:23:21;;;;;;;;;;;;;;;16.67;49.13;101882.00;5064597;28;19920;-68
2021/05/30 00:25:48;;;;;;;;;;;;;;;16.77;48.87;101878.94;5075326;28;19921;-69
2021/05/30 00:28:22;;;;;;;;;;;;;;;16.67;49.21;101888.41;5079382;28;20295;-72
2021/05/30 00:30:50;;;;;;;;;;;;;;;16.53;49.79;101889.69;5073056;28;19954;-72
2021/05/30 00:33:17;;;;;;;;;;;;;;;16.53;50.00;101884.13;5073257;28;19920;-71
2021/05/30 00:35:45;;;;;;;;;;;;;;;16.43;50.31;101889.97;5091658;28;19938;-71
2021/05/30 00:39:17;;;;;;;6.03;3.55;;;;;;;16.51;50.51;101884.44;5128400;27;20181;-77
2021/05/30 00:41:45;;;;;;;8.65;3.70;;;;;;;16.44;50.68;101886.06;5088573;27;20044;-74
2021/05/30 00:44:27;;;;;;;8.50;3.67;;;;;;;16.24;51.47;101887.47;5125402;28;20043;-75
2021/05/30 00:46:56;;;;;;;6.13;3.63;;;;;;;16.07;52.13;101887.44;5127824;28;20059;-74
2021/05/30 00:49:25;;;;;;;7.20;3.83;;;;;;;16.31;51.58;101885.06;5092035;28;20047;-73
2021/05/30 00:51:53;;;;;;;7.20;3.83;;;;;;;16.10;52.84;101886.78;5109936;28;20520;-75
2021/05/30 00:54:21;;;;;;;8.00;3.80;;;;;;;16.05;52.68;101881.38;5089740;28;20047;-75
2021/05/30 00:56:49;;;;;;;6.93;3.70;;;;;;;16.22;52.44;101872.25;5110837;28;20052;-76
2021/05/30 00:59:19;;;;;;;8.32;4.25;;;;;;;16.22;52.29;101880.59;5089161;28;20055;-73
2021/05/30 01:01:48;;;;;;;7.43;3.75;;;;;;;16.24;52.54;101881.91;5108364;28;20048;-74
2021/05/30 01:04:16;;;;;;;6.45;4.20;;;;;;;16.15;52.70;101883.84;5090052;28;20513;-74
2021/05/30 01:06:44;;;;;;;6.47;4.20;;;;;;;16.20;52.66;101878.13;5107336;28;20048;-74
2021/05/30 01:09:11;;;;;;;6.57;3.90;;;;;;;16.44;52.12;101877.72;5090098;28;20051;-74
2021/05/30 01:11:46;;;;;;;6.20;4.10;;;;;;;16.32;52.46;101869.19;5108299;28;20055;-76
2021/05/30 01:14:14;;;;;;;7.50;4.75;;;;;;;16.35;52.54;101874.09;5090656;28;20055;-72
2021/05/30 01:16:41;;;;;;;7.40;4.18;;;;;;;16.18;53.03;101879.63;5090855;28;20055;-74
2021/05/30 01:19:10;;;;;;;8.23;4.50;;;;;;;16.17;53.47;101873.25;5089850;28;20059;-74
2021/05/30 01:21:38;;;;;;;12.60;4.68;;;;;;;16.38;52.90;101865.09;5107329;28;20054;-75
2021/05/30 01:24:06;;;;;;;8.05;4.88;;;;;;;16.27;53.03;101869.31;5123602;28;20046;-75
2021/05/30 01:26:34;;;;;;;7.55;4.47;;;;;;;16.44;52.49;101866.59;5089298;28;20056;-73
2021/05/30 01:29:01;;;;;;;8.40;4.70;;;;;;;16.42;52.60;101869.69;5107605;28;20051;-74
2021/05/30 01:31:28;;;;;;;7.45;4.38;;;;;;;16.53;52.71;101861.88;5090108;28;20063;-74
2021/05/30 01:33:56;;;;;;;7.88;4.68;;;;;;;16.76;51.88;101868.94;5107282;28;20051;-76
2021/05/30 01:36:24;;;;;;;9.55;4.78;;;;;;;16.42;52.50;101866.09;5090163;28;20044;-74
2021/05/30 01:38:51;;;;;;;8.63;4.70;;;;;;;16.29;53.11;101865.09;5072633;28;20649;-74
2021/05/30 01:41:19;;;;;;;8.27;5.15;;;;;;;16.21;53.66;101873.41;5107553;28;20048;-73
2021/05/30 01:43:46;;;;;;;10.60;5.35;;;;;;;15.99;54.27;101863.19;5073492;28;20047;-75
2021/05/30 01:46:13;;;;;;;8.80;5.00;;;;;;;16.00;54.73;101864.84;5090689;28;20048;-75
2021/05/30 01:48:41;;;;;;;10.75;5.25;;;;;;;16.11;54.58;101866.16;5104746;28;20083;-73
2021/05/30 01:51:08;;;;;;;8.57;5.00;;;;;;;16.17;54.12;101862.13;5092802;28;20052;-76
2021/05/30 01:54:21;;;;;;;7.53;4.90;;;;;;;16.29;53.81;101859.53;5076109;28;20048;-73
2021/05/30 01:59:09;;;;;;;8.00;5.80;;;;;;;15.94;54.77;101865.28;5106882;28;20052;-73
2021/05/30 02:01:37;;;;;;;7.50;5.80;;;;;;;15.62;56.24;101867.28;5059060;28;20062;-74
2021/05/30 02:04:06;;;;;;;9.00;5.78;;;;;;;15.30;57.37;101869.53;5093149;28;20052;-73
2021/05/30 02:06:34;;;;;;;12.13;5.72;;;;;;;15.40;57.20;101869.28;5058649;28;20065;-74
2021/05/30 02:09:03;;;;;;;10.52;6.78;;;;;;;15.62;56.68;101874.81;5093828;28;20052;-74
2021/05/30 02:11:31;;;;;;;9.90;6.00;;;;;;;15.71;56.29;101870.94;5092922;28;20074;-72
2021/05/30 02:14:02;;;;;;;10.57;6.07;;;;;;;15.66;56.34;101873.03;5075079;28;20055;-73
2021/05/30 02:16:30;;;;;;;8.27;5.95;;;;;;;15.50;56.86;101871.78;5075450;28;20067;-75
2021/05/30 02:18:59;;;;;;;8.47;6.03;;;;;;;15.49;57.05;101875.72;5058063;28;20063;-73
2021/05/30 02:21:43;;;;;;;10.20;5.70;;;;;;;15.51;57.20;101876.22;5091064;28;20350;-72
2021/05/30 02:24:12;;;;;;;11.85;5.60;;;;;;;15.47;57.20;101878.81;5092893;28;20051;-71
2021/05/30 02:26:40;;;;;;;11.63;5.57;;;;;;;15.53;56.56;101883.09;5093417;28;20499;-71
2021/05/30 02:29:08;;;;;;;12.32;6.60;;;;;;;15.57;56.94;101880.50;5093297;28;20056;-73
2021/05/30 02:31:36;;;;;;;10.45;6.20;;;;;;;15.69;56.72;101877.97;5058713;28;20044;-74
2021/05/30 02:34:03;;;;;;;8.00;5.85;;;;;;;15.92;56.03;101876.75;5074475;28;20411;-73
2021/05/30 02:36:32;;;;;;;12.43;6.78;;;;;;;15.85;56.08;101876.38;5075370;28;20044;-73
2021/05/30 02:38:59;;;;;;;9.38;6.53;;;;;;;15.29;57.59;101882.59;5092714;28;20499;-74
2021/05/30 02:41:27;;;;;;;11.23;6.35;;;;;;;15.68;56.76;101868.81;5092818;28;20480;-73
2021/05/30 02:43:54;;;;;;;13.25;6.55;;;;;;;15.98;56.12;101875.47;5074936;28;20059;-71
2021/05/30 02:46:21;;;;;;;10.43;6.10;;;;;;;16.05;55.79;101875.00;5093095;28;20502;-72
2021/05/30 02:48:49;;;;;;;9.35;6.22;;;;;;;16.09;55.58;101879.56;5058463;28;20441;-74
2021/05/30 02:51:19;;;;;;;11.10;5.70;;;;;;;15.93;56.00;101875.63;5091020;28;20048;-76
2021/05/30 02:53:46;;;;;;;9.60;6.28;;;;;;;15.64;56.67;101878.06;5073746;28;20071;-74
2021/05/30 02:56:16;;;;;;;10.20;6.65;;;;;;;15.47;57.49;101881.59;5092662;28;20118;-73
2021/05/30 02:58:43;;;;;;;9.77;6.70;;;;;;;15.52;57.41;101878.69;5092548;28;20059;-74
2021/05/30 03:01:10;;;;;;;9.88;6.25;;;;;;;15.35;57.95;101881.31;5107026;28;20044;-73
2021/05/30 03:03:38;;;;;;;10.95;7.13;;;;;;;15.31;58.20;101882.25;5074606;28;20408;-74
2021/05/30 03:06:05;;;;;;;9.35;6.30;;;;;;;15.59;57.48;101881.81;5092557;28;20045;-74
2021/05/30 03:08:33;;;;;;;9.45;6.53;;;;;;;15.69;56.97;101886.31;5092653;28;20067;-74
2021/05/30 03:11:00;;;;;;;12.82;6.45;;;;;;;15.72;57.06;101878.16;5074976;28;20048;-74
2021/05/30 03:13:28;;;;;;;11.57;7.22;;;;;;;15.46;57.36;101884.69;5073624;28;20052;-73
2021/05/30 03:15:55;;;;;;;14.88;7.35;;;;;;;15.20;58.45;101886.44;5073768;28;20055;-74
2021/05/30 03:18:24;;;;;;;9.55;6.95;;;;;;;15.69;57.17;101892.66;5092456;28;20399;-74
2021/05/30 03:20:51;;;;;;;11.07;6.93;;;;;;;15.85;56.63;101884.72;5106940;28;20048;-73
2021/05/30 03:23:19;;;;;;;9.73;7.32;;;;;;;15.78;56.40;101889.91;5092071;28;20054;-75
2021/05/30 03:25:46;;;;;;;11.88;6.75;;;;;;;15.80;56.46;101884.88;5106943;28;20067;-72
2021/05/30 03:28:13;;;;;;;10.57;6.72;;;;;;;15.82;56.49;101895.66;5091970;28;20055;-71
2021/05/30 03:30:41;;;;;;;11.68;7.43;;;;;;;15.73;56.77;101892.84;5073577;28;20511;-74
2021/05/30 03:33:08;;;;;;;10.55;7.20;;;;;;;15.34;57.70;101901.88;5091300;28;20063;-74
2021/05/30 03:35:39;;;;;;;13.30;7.32;;;;;;;15.59;57.32;101895.72;5074336;28;20052;-73
2021/05/30 03:38:09;;;;;;;11.02;6.70;;;;;;;15.52;57.83;101895.34;5091187;28;20052;-76
2021/05/30 03:40:47;;;;;;;10.90;7.63;;;;;;;15.30;58.25;101895.34;5073841;28;20048;-75
2021/05/30 03:43:15;;;;;;;10.57;7.10;;;;;;;15.39;58.00;101893.44;5093353;28;20044;-75
2021/05/30 03:45:43;;;;;;;10.23;7.25;;;;;;;15.06;59.05;101900.41;5092651;28;20507;-75
2021/05/30 03:48:10;;;;;;;9.75;7.13;;;;;;;15.42;58.52;101898.38;5073801;28;20044;-75
2021/05/30 03:50:38;;;;;;;9.95;7.15;;;;;;;15.49;57.81;101906.25;5091146;28;20060;-74
2021/05/30 03:53:05;;;;;;;16.08;7.75;;;;;;;15.07;59.15;101898.41;5058184;28;20044;-76
2021/05/30 03:55:34;;;;;;;11.35;7.28;;;;;;;14.98;59.54;101903.91;5091955;28;20067;-75
2021/05/30 03:58:01;;;;;;;9.98;7.10;;;;;;;15.27;58.62;101893.19;5073765;28;20071;-73
2021/05/30 04:00:29;;;;;;;12.27;7.60;;;;;;;15.57;57.81;101888.81;5090885;28;20052;-75
2021/05/30 04:02:56;;;;;;;12.60;7.45;;;;;;;15.65;57.65;101894.44;5106244;28;20048;-74
2021/05/30 04:05:23;;;;;;;12.18;8.23;;;;;;;15.53;58.03;101885.84;5057481;28;20044;-74
2021/05/30 04:07:51;;;;;;;11.27;7.28;;;;;;;15.67;57.21;101906.03;5091093;28;20044;-77
2021/05/30 04:10:18;;;;;;;13.38;7.85;;;;;;;15.10;58.74;101898.63;5091414;28;20503;-73
2021/05/30 04:12:46;;;;;;;13.40;8.38;;;;;;;15.04;59.42;101894.34;5090961;28;20048;-75
2021/05/30 04:15:14;;;;;;;12.57;7.60;;;;;;;15.46;58.74;101895.81;5093369;28;20044;-76
2021/05/30 04:17:43;;;;;;;11.43;7.45;;;;;;;15.01;59.20;101899.69;5074859;28;20048;-77
2021/05/30 04:20:13;;;;;;;11.88;8.07;;;;;;;15.20;59.42;101894.78;5093083;28;20056;-79
2021/05/30 04:22:41;;;;;;;11.10;7.60;;;;;;;15.34;58.73;101901.88;5094345;28;20051;-75
2021/05/30 04:25:09;;;;;;;11.60;8.35;;;;;;;15.20;58.87;101903.91;5095379;28;20056;-76
2021/05/30 04:27:40;;;;;;;12.02;8.55;;;;;;;14.82;60.14;101901.81;5076955;28;20055;-74
2021/05/30 04:30:10;;;;;;;13.68;7.70;;;;;;;15.22;59.34;101903.63;5094338;28;20056;-77
2021/05/30 04:32:38;;;;;;;11.65;7.90;;;;;;;15.21;58.73;101905.56;5073559;28;20052;-79
2021/05/30 04:35:06;;;;;;;10.95;7.82;;;;;;;14.99;59.44;101901.97;5073540;28;20047;-79
2021/05/30 04:37:34;;;;;;;12.75;8.38;;;;;;;14.51;61.19;101898.91;5106882;28;20043;-76
2021/05/30 04:40:03;;;;;;;13.32;8.98;;;;;;;14.66;60.65;101902.16;5091623;28;20373;-75
2021/05/30 04:42:32;;;;;;;13.10;8.63;;;;;;;14.75;60.72;101904.19;5090675;28;20044;-79
2021/05/30 04:44:59;;;;;;;17.85;9.15;;;;;;;14.47;61.99;101907.03;5073252;28;20243;-77
2021/05/30 04:47:28;;;;;;;11.63;8.85;;;;;;;14.53;61.89;101899.41;5072970;28;20051;-78
2021/05/30 04:49:56;;;;;;;17.40;9.68;;;;;;;14.62;61.49;101897.56;5091212;28;20052;-74
2021/05/30 04:52:23;;;;;;;15.85;9.45;;;;;;;14.70;61.38;101907.09;5072274;28;20048;-75
2021/05/30 04:54:50;;;;;;;12.35;8.80;;;;;;;14.91;61.23;101900.75;5090422;28;20063;-75
2021/05/30 04:57:18;;;;;;;14.07;9.30;;;;;;;14.74;61.55;101900.59;5072126;28;20483;-78
2021/05/30 04:59:45;;;;;;;14.63;9.73;;;;;;;14.46;62.22;101902.63;5072622;28;20067;-76
2021/05/30 05:02:13;;;;;;;13.13;9.63;;;;;;;14.62;61.78;101897.56;5056151;28;20138;-75
2021/05/30 05:04:40;;;;;;;13.52;9.32;;;;;;;14.97;60.96;101899.50;5088616;28;20575;-76
2021/05/30 05:07:08;;;;;;;13.20;9.13;;;;;;;15.15;60.43;101906.00;5056469;28;20048;-77
2021/05/30 05:09:35;;;;;;;13.85;9.55;;;;;;;14.96;60.89;101908.16;5091292;28;20044;-76
2021/05/30 05:12:03;;;;;;;13.68;9.68;;;;;;;14.48;61.91;101910.63;5073799;28;20055;-74
2021/05/30 05:14:31;;;;;;;14.63;9.43;;;;;;;14.65;61.92;101908.00;5073053;28;20160;-75
2021/05/30 05:16:58;;;;;;;11.68;9.13;;;;;;;14.76;61.34;101906.66;5091701;28;20059;-75
2021/05/30 05:19:25;;;;;;;13.40;10.10;;;;;;;14.73;61.39;101910.06;5091657;28;20510;-74
2021/05/30 05:21:53;;;;;;;16.55;9.75;;;;;;;14.88;60.81;101906.94;5073263;28;20052;-76
2021/05/30 05:24:21;;;;;;;13.13;9.40;;;;;;;14.79;61.51;101913.50;5074288;28;20062;-74
2021/05/30 05:26:48;;;;;;;13.90;9.88;;;;;;;14.85;61.10;101910.34;5095004;28;20067;-75
2021/05/30 05:29:15;;;;;;;12.70;9.40;;;;;;;14.78;61.27;101909.94;5095311;28;20479;-76
2021/05/30 05:31:43;;;;;;;14.07;10.00;;;;;;;14.82;61.34;101907.38;5095039;28;20040;-76
2021/05/30 05:34:11;;;;;;;14.10;9.88;;;;;;;14.94;60.75;101908.44;5093842;28;20044;-73
2021/05/30 05:36:39;;;;;;;15.98;8.98;;;;;;;15.10;60.24;101900.59;5076197;28;20048;-76
2021/05/30 05:39:39;;;;;;;13.65;9.48;;;;;;;15.26;59.40;101897.09;5075611;28;20492;-77
2021/05/30 05:42:08;;;;;;;14.60;9.85;;;;;;;15.41;59.15;101899.50;4998880;28;20053;-75
2021/05/30 05:44:35;;;;;;;13.67;8.67;;;;;;;15.47;58.71;101901.03;5031091;28;20045;-77
2021/05/30 05:47:04;;;;;;;13.80;9.77;;;;;;;15.27;59.14;101909.03;5030806;28;20648;-76
2021/05/30 05:49:36;;;;;;;13.32;9.68;;;;;;;15.25;59.43;101911.31;5014871;28;20045;-76
2021/05/30 05:52:03;;;;;;;14.45;9.77;;;;;;;15.04;60.35;101894.34;5031209;28;20152;-74
2021/05/30 05:54:51;;;;;;;13.90;8.95;;;;;;;15.48;59.20;101901.88;5017540;28;20172;-77
2021/05/30 05:57:18;;;;;;;15.05;9.75;;;;;;;15.46;58.66;101899.38;5030917;28;20053;-74
2021/05/30 05:59:49;;;;;;;14.73;9.20;;;;;;;15.51;58.16;101899.28;5030506;28;20057;-76
2021/05/30 06:02:17;;;;;;;11.32;8.82;;;;;;;15.41;58.45;101890.38;5030720;28;20071;-74
2021/05/30 06:04:45;;;;;;;13.20;8.57;;;;;;;15.65;57.31;101900.00;5014653;28;20046;-74
2021/05/30 06:07:12;;;;;;;12.02;9.05;;;;;;;15.45;58.20;101894.97;5031019;28;20062;-75
2021/05/30 06:09:40;;;;;;;13.63;9.55;;;;;;;15.53;58.07;101891.41;5031689;28;20053;-78
2021/05/30 06:12:08;;;;;;;12.98;9.48;;;;;;;15.83;57.58;101894.53;5031633;28;20061;-74
2021/05/30 06:14:36;;;;;;;13.70;8.85;;;;;;;16.04;56.20;101892.81;5013938;28;20405;-75
2021/05/30 06:17:04;;;;;;;14.73;9.98;;;;;;;15.03;59.19;101901.00;5014822;28;20060;-75
2021/05/30 06:19:31;;;;;;;16.80;9.95;;;;;;;15.30;58.84;101900.06;5059583;28;20052;-75
2021/05/30 06:22:01;;;;;;;14.52;10.05;;;;;;;15.25;58.83;101900.19;5093259;28;20064;-76
2021/05/30 06:24:29;;;;;;;14.95;10.73;;;;;;;15.18;59.35;101903.44;5074983;28;20055;-74
2021/05/30 06:26:57;;;;;;;11.95;9.73;;;;;;;15.39;59.12;101901.78;5093020;28;20059;-76
2021/05/30 06:29:25;;;;;;;12.73;9.80;;;;;;;15.63;58.15;101893.94;5074602;28;20499;-76
2021/05/30 06:31:54;;;;;;;18.10;10.25;;;;;;;15.65;58.13;101904.72;5074903;28;20491;-75
2021/05/30 06:34:30;;;;;;;15.75;9.40;;;;;;;15.69;57.63;101903.75;5092965;28;20051;-74
2021/05/30 06:36:59;;;;;;;13.80;9.75;;;;;;;15.71;57.83;101915.38;5092686;28;20472;-74
2021/05/30 06:39:30;;;;;;;15.75;9.98;;;;;;;15.59;58.08;101911.53;5092814;28;20052;-74
2021/05/30 06:41:58;;;;;;;15.27;9.57;;;;;;;15.87;57.25;101906.63;5074747;28;20052;-74
2021/05/30 06:44:25;;;;;;;14.40;10.20;;;;;;;15.80;57.10;101918.19;5092926;28;20047;-74
2021/05/30 06:46:53;;;;;;;12.05;9.93;;;;;;;15.64;57.83;101909.47;5092902;28;20048;-74
2021/05/30 06:49:20;;;;;;;16.02;10.57;;;;;;;15.90;57.45;101911.56;5075296;28;20048;-75
2021/05/30 06:51:48;;;;;;;14.48;9.57;;;;;;;15.94;56.99;101905.03;5108074;28;20048;-72
2021/05/30 06:54:16;;;;;;;13.75;9.98;;;;;;;15.89;56.66;101909.91;5092379;28;20048;-74
2021/05/30 06:56:53;;;;;;;15.88;10.23;;;;;;;15.86;56.69;101905.81;5058579;28;20420;-73
2021/05/30 06:59:31;;;;;;;15.85;11.27;;;;;;;16.12;56.18;101908.69;5040599;28;20044;-75
2021/05/30 07:02:01;;;;;;;14.23;10.10;;;;;;;15.95;56.57;101905.84;5074432;28;20047;-73
2021/05/30 07:04:29;;;;;;;14.38;10.25;;;;;;;16.09;56.70;101901.00;5057154;28;20052;-76
2021/05/30 07:06:56;;;;;;;15.85;10.48;;;;;;;16.13;56.48;101907.53;5092364;28;20051;-77
2021/05/30 07:09:24;;;;;;;14.45;9.38;;;;;;;16.39;55.71;101912.03;5092475;28;20039;-75
2021/05/30 07:11:51;;;;;;;17.48;10.07;;;;;;;16.33;55.81;101918.91;5092505;28;20479;-72
2021/05/30 07:14:23;;;;;;;14.43;10.45;;;;;;;16.42;55.41;101913.38;5074457;28;20143;-73
2021/05/30 07:16:53;;;;;;;13.50;9.77;;;;;;;16.08;56.35;101910.47;5092174;28;20048;-73
2021/05/30 07:19:20;;;;;;;16.35;10.20;;;;;;;16.22;56.19;101922.28;5092294;28;20044;-74
2021/05/30 07:21:55;;;;;;;13.30;9.63;;;;;;;16.44;55.52;101911.91;5091693;28;20059;-74
2021/05/30 07:24:22;;;;;;;13.90;9.52;;;;;;;16.66;55.06;101906.25;5073220;28;20495;-73
2021/05/30 07:26:50;;;;;;;16.60;9.68;;;;;;;16.89;54.14;101907.72;5091979;28;20078;-73
2021/05/30 07:29:17;;;;;;;14.07;9.75;;;;;;;16.89;53.99;101899.38;5091953;28;20048;-73
2021/05/30 07:31:46;;;;;;;14.35;9.38;;;;;;;17.05;53.46;101908.06;5092083;28;20389;-73
2021/05/30 07:34:13;;;;;;;16.15;9.20;;;;;;;17.40;52.52;101906.88;5091829;28;20059;-72
2021/05/30 07:36:41;;;;;;;14.00;9.73;;;;;;;17.20;52.97;101904.78;5090890;28;20511;-73
2021/05/30 07:39:08;;;;;;;14.35;9.95;;;;;;;17.44;52.60;101905.06;5091162;28;20059;-74
2021/05/30 07:41:36;;;;;;;12.65;9.27;;;;;;;17.75;51.90;101905.69;5072571;28;20494;-72
2021/05/30 07:44:04;;;;;;;15.55;10.00;;;;;;;17.69;51.68;101904.25;5091591;28;20048;-71
2021/05/30 07:46:31;;;;;;;13.90;9.60;;;;;;;18.13;51.06;101899.31;5091396;28;20475;-72
2021/05/30 07:48:59;;;;;;;17.00;9.65;;;;;;;18.17;51.00;101886.31;5091708;28;20043;-75
2021/05/30 07:51:27;;;;;;;16.08;9.38;;;;;;;18.66;49.61;101893.91;5057037;28;20051;-74
2021/05/30 07:53:54;;;;;;;15.90;9.95;;;;;;;18.07;50.55;101895.06;5091328;28;20052;-73
2021/05/30 07:56:24;;;;;;;13.68;8.98;;;;;;;18.35;49.78;101891.47;5073957;28;20514;-74
2021/05/30 07:58:59;;;;;;;15.50;9.38;;;;;;;18.26;50.38;101882.31;5059543;28;20631;-74
2021/05/30 08:01:27;;;;;;;14.45;9.27;;;;;;;18.58;48.66;101881.69;5056954;28;20054;-74
2021/05/30 08:03:54;;;;;;;13.60;8.85;;;;;;;18.25;49.76;101889.06;5091250;28;20337;-74
2021/05/30 08:06:21;;;;;;;14.07;8.77;;;;;;;18.47;48.98;101882.38;5091332;28;20060;-73
2021/05/30 08:08:49;;;;;;;13.52;9.32;;;;;;;19.05;48.12;101879.47;5090079;28;20058;-75
2021/05/30 08:11:17;;;;;;;10.98;7.53;;;;;;;18.90;47.61;101880.09;5073832;28;20055;-73
2021/05/30 08:13:45;;;;;;;10.80;7.85;;;;;;;18.99;46.85;101875.25;5073608;28;20051;-75
2021/05/30 08:16:12;;;;;;;11.85;7.72;;;;;;;19.05;47.65;101874.72;5073550;28;20395;-73
2021/05/30 08:18:40;;;;;;;11.73;8.43;;;;;;;18.39;49.07;101886.03;5090823;28;20058;-74
2021/05/30 08:21:08;;;;;;;10.75;8.18;;;;;;;18.09;50.33;101887.19;5091106;28;20602;-73
2021/05/30 08:23:40;;;;;;;10.70;7.78;;;;;;;18.46;49.71;101878.78;5072548;28;20503;-76
2021/05/30 08:26:08;;;;;;;10.82;7.53;;;;;;;18.76;48.53;101876.75;5091710;28;20400;-74
2021/05/30 08:28:36;;;;;;;10.15;7.80;;;;;;;17.87;50.04;101880.72;5091379;28;20404;-73
2021/05/30 08:31:04;;;;;;;11.77;7.90;;;;;;;18.27;49.44;101883.94;5091406;28;20047;-73
2021/05/30 08:33:31;;;;;;;10.10;7.50;;;;;;;18.55;48.65;101875.97;5110152;28;20063;-74
2021/05/30 08:36:00;;;;;;;10.75;7.47;;;;;;;19.01;46.78;101882.16;5092149;28;20050;-75
2021/05/30 08:38:30;;;;;;;11.40;7.70;;;;;;;17.89;49.66;101877.59;5089031;28;20043;-74
2021/05/30 08:41:00;;;;;;;12.40;7.55;;;;;;;17.89;49.68;101875.63;5092219;28;20509;-75
2021/05/30 08:43:28;;;;;;;10.38;6.90;;;;;;;17.86;49.80;101869.91;5106665;28;20051;-74
2021/05/30 08:45:56;;;;;;;12.23;7.40;;;;;;;17.88;49.77;101870.38;5109744;28;20505;-73
2021/05/30 08:48:23;;;;;;;11.15;7.05;;;;;;;17.84;49.36;101866.63;5113059;28;20058;-74
2021/05/30 08:51:06;;;;;;;11.43;7.20;;;;;;;17.89;49.32;101863.66;5095608;28;20408;-76
2021/05/30 08:53:35;;;;;;;10.00;7.28;;;;;;;18.08;48.29;101857.66;5110457;28;20040;-78
2021/05/30 08:56:05;;;;;;;11.27;6.93;;;;;;;18.17;48.59;101856.44;5107721;28;20063;-75
2021/05/30 08:58:37;;;;;;;9.55;6.60;;;;;;;18.44;47.50;101855.19;5112443;28;20051;-77
2021/05/30 09:01:10;;;;;;;9.07;6.10;;;;;;;18.57;47.16;101859.66;5079170;28;20048;-74
2021/05/30 09:04:07;;;;;;;9.27;6.60;;;;;;;18.37;47.37;101852.91;5100416;27;20071;-78
2021/05/30 09:06:36;;;;;;;10.02;6.28;;;;;;;18.66;46.96;101852.88;5094836;28;20047;-73
2021/05/30 09:09:06;;;;;;;9.65;5.75;;;;;;;18.71;46.96;101847.09;5088446;28;20055;-76
2021/05/30 09:11:48;;;;;;;9.98;6.30;;;;;;;18.56;46.73;101850.50;5097059;28;20051;-72
2021/05/30 09:14:23;;;;;;;9.65;6.13;;;;;;;18.73;45.91;101850.34;5105622;28;20059;-74
2021/05/30 09:17:04;;;;;;;11.43;6.20;;;;;;;18.66;46.37;101850.09;5081275;28;20115;-73
2021/05/30 09:19:43;;;;;;;15.10;6.60;;;;;;;18.96;45.85;101860.03;5113077;28;20054;-71
2021/05/30 09:22:33;;;;;;;9.85;5.97;;;;;;;18.79;45.24;101862.13;5063261;28;20056;-75
2021/05/30 09:25:19;;;;;;;9.13;6.40;;;;;;;18.68;45.65;101855.31;5079935;28;20403;-73
2021/05/30 09:28:00;;;;;;;11.55;6.25;;;;;;;18.57;46.57;101852.13;5074329;28;20048;-75
2021/05/30 09:30:34;;;;;;;6.90;5.15;;;;;;;18.43;44.47;101857.13;5099677;28;20396;-70
2021/05/30 09:33:18;;;;;;;8.85;5.13;;;;;;;18.61;44.21;101855.03;5095508;28;20490;-74
2021/05/30 09:35:48;;;;;;;7.78;4.72;;;;;;;18.77;43.77;101848.53;5094241;28;20059;-75
2021/05/30 09:38:28;;;;;;;9.05;5.15;;;;;;;18.88;43.97;101849.72;5094686;28;20047;-70
2021/05/30 09:41:13;;;;;;;8.02;4.85;;;;;;;19.12;43.94;101845.41;5095787;28;20055;-77
2021/05/30 09:43:50;;;;;;;7.82;5.38;;;;;;;19.03;44.13;101842.69;5078118;28;20048;-74
2021/05/30 09:46:31;;;;;;;9.43;5.05;;;;;;;19.08;44.18;101837.72;5111857;27;20055;-74
2021/05/30 09:49:02;;;;;;;7.10;5.10;;;;;;;19.17;43.59;101829.25;5099021;28;20040;-71
2021/05/30 09:51:37;;;;;;;11.43;5.65;;;;;;;19.34;43.89;101842.25;5093310;28;20055;-71
2021/05/30 09:54:06;;;;;;;8.18;5.50;;;;;;;19.34;44.37;101834.69;5092718;28;20063;-69
2021/05/30 09:56:47;;;;;;;8.90;5.60;;;;;;;19.35;43.74;101832.72;5093842;28;20044;-70
2021/05/30 09:59:17;;;;;;;8.68;5.53;;;;;;;18.91;43.80;101832.31;5092172;28;20514;-69
2021/05/30 10:02:01;;;;;;;8.55;5.35;;;;;;;18.80;44.09;101810.72;5076136;28;20602;-69
2021/05/30 10:04:34;;;;;;;10.88;5.78;;;;;;;19.04;44.34;101825.59;5105656;28;20054;-69
2021/05/30 10:07:05;;;;;;;9.00;5.10;;;;;;;19.13;44.12;101824.69;5121624;27;20043;-70
2021/05/30 10:09:34;;;;;;;6.85;5.35;;;;;;;19.31;44.03;101824.22;5075788;28;20538;-75
2021/05/30 10:12:03;;;;;;;7.28;5.03;;;;;;;19.51;43.49;101814.91;5093056;28;20500;-70
2021/05/30 10:14:31;;;;;;;8.20;5.68;;;;;;;19.32;42.85;101814.66;5093365;28;20036;-74
2021/05/30 10:16:59;;;;;;;8.73;4.88;;;;;;;19.40;43.16;101816.56;5093651;28;20099;-72
2021/05/30 10:19:29;;;;;;;9.35;4.50;;;;;;;19.59;42.85;101819.63;5072648;28;20048;-73
2021/05/30 10:21:58;;;;;;;13.35;4.60;;;;;;;19.68;42.40;101809.13;5077244;28;20048;-72
2021/05/30 10:24:27;;;;;;;9.00;5.13;;;;;;;19.72;42.12;101798.03;5070070;28;20047;-71
2021/05/30 10:27:15;;;;;;;7.18;4.55;;;;;;;19.96;41.17;101807.25;5094271;28;20051;-67
2021/05/30 10:30:07;;;;;;;6.85;4.18;;;;;;;19.94;40.54;101801.22;5092061;28;20052;-71
2021/05/30 10:32:35;;;;;;;5.57;4.13;;;;;;;19.95;40.49;101816.00;5105554;28;20051;-73
2021/05/30 10:35:16;;;;;;;6.47;4.10;;;;;;;19.93;40.58;101805.16;5113342;28;20044;-74
2021/05/30 10:37:51;;;;;;;6.55;4.20;;;;;;;20.15;40.62;101806.69;5113009;28;20059;-70
2021/05/30 10:40:21;;;;;;;6.93;4.10;;;;;;;20.24;39.70;101800.97;5094936;28;20047;-68
2021/05/30 10:43:07;;;;;;;6.53;4.05;;;;;;;19.83;40.35;101799.22;5112888;28;20430;-66
2021/05/30 10:45:42;;;;;;;7.32;3.85;;;;;;;20.06;40.01;101806.81;5094351;28;20523;-71
2021/05/30 10:48:14;;;;;;;7.13;3.90;;;;;;;20.07;39.28;101796.41;5112534;28;20055;-67
2021/05/30 10:53:47;;;;;;;5.88;3.33;;;;;;;20.33;36.36;101782.09;5093560;28;20047;-71
2021/05/30 10:56:34;;;;;;;8.23;4.40;;;;;;;20.49;36.18;101780.97;5094736;28;20044;-71
2021/05/30 10:59:11;;;;;;;6.95;3.45;;;;;;;20.50;36.26;101779.00;5111596;28;20052;-70
2021/05/30 11:01:51;;;;;;;6.38;3.00;;;;;;;20.36;37.12;101785.00;5092119;28;20044;-69
2021/05/30 11:04:33;;;;;;;5.68;2.85;;;;;;;20.42;33.68;101777.97;5108328;28;20051;-70
2021/05/30 11:07:04;;;;;;;7.47;4.53;;;;;;;20.64;34.66;101777.41;5110638;28;20043;-73
2021/05/30 11:09:58;;;;;;;6.75;3.25;;;;;;;20.87;34.77;101772.09;5112210;28;20043;-73
2021/05/30 11:12:30;;;;;;;6.57;3.70;;;;;;;20.76;35.17;101783.00;5090900;28;20062;-70
2021/05/30 11:15:13;;;;;;;6.57;3.38;;;;;;;20.44;35.47;101772.84;5112840;28;20056;-75
2021/05/30 11:17:46;;;;;;;6.40;2.97;;;;;;;20.63;35.21;101763.78;5073301;28;20381;-71
2021/05/30 11:20:15;;;;;;;5.43;3.03;;;;;;;20.67;35.00;101761.91;5092471;28;20122;-69
2021/05/30 11:22:51;;;;;;;6.20;3.58;;;;;;;20.70;34.36;101755.56;5092653;28;20044;-68
2021/05/30 11:25:23;;;;;;;4.72;2.70;;;;;;;20.38;34.32;101757.44;5073221;28;20051;-73
2021/05/30 11:27:54;;;;;;;6.55;2.92;;;;;;;20.57;34.75;101759.63;5073116;28;20056;-70
2021/05/30 11:30:43;;;;;;;5.50;3.17;;;;;;;20.71;34.36;101757.22;5108636;28;20074;-70
2021/05/30 11:33:26;;;;;;;6.60;3.15;;;;;;;20.93;34.69;101740.66;5106085;27;20040;-71
2021/05/30 11:35:58;;;;;;;5.05;2.80;;;;;;;21.23;34.47;101753.09;5097593;28;20376;-66
2021/05/30 11:38:45;;;;;;;5.78;3.17;;;;;;;21.48;33.92;101748.13;5073473;28;20604;-69
2021/05/30 11:41:17;;;;;;;4.95;3.10;;;;;;;21.56;33.78;101740.72;5091694;28;20047;-68
2021/05/30 11:43:55;;;;;;;4.43;2.55;;;;;;;21.64;31.52;101736.91;5088387;28;20052;-71
2021/05/30 11:46:23;;;;;;;3.42;2.10;;;;;;;21.69;31.78;101731.06;5092983;28;20059;-71